sensor_id;sensor_type;location;lat;lon;timestamp;P1;durP1;ratioP1;P2;durP2;ratioP2
28828;SDS011;15966;51.540;11.870;2023-03-01T00:01:58;18.63;;;13.68;;
28828;SDS011;15966;51.540;11.870;2023-03-01T00:04:25;19.52;;;12.10;;
28828;SDS011;15966;51.540;11.870;2023-03-01T00:06:52;16.38;;;12.05;;
28828;SDS011;15966;51.540;11.870;2023-03-01T00:09:18;16.88;;;12.50;;
28828;SDS011;15966;51.540;11.870;2023-03-01T00:11:44;15.80;;;11.98;;
28828;SDS011;15966;51.540;11.870;2023-03-01T00:14:10;16.65;;;11.43;;
28828;SDS011;15966;51.540;11.870;2023-03-01T00:16:37;15.45;;;10.23;;
28828;SDS011;15966;51.540;11.870;2023-03-01T00:19:05;14.60;;;11.77;;
28828;SDS011;15966;51.540;11.870;2023-03-01T00:21:33;20.50;;;12.90;;
28828;SDS011;15966;51.540;11.870;2023-03-01T00:24:00;20.30;;;13.07;;
28828;SDS011;15966;51.540;11.870;2023-03-01T00:26:27;14.43;;;11.85;;
28828;SDS011;15966;51.540;11.870;2023-03-01T00:28:53;19.45;;;11.98;;
28828;SDS011;15966;51.540;11.870;2023-03-01T00:31:23;19.02;;;12.80;;
28828;SDS011;15966;51.540;11.870;2023-03-01T00:33:54;18.77;;;12.93;;
28828;SDS011;15966;51.540;11.870;2023-03-01T00:36:24;18.65;;;11.82;;
28828;SDS011;15966;51.540;11.870;2023-03-01T00:38:51;15.25;;;12.18;;
28828;SDS011;15966;51.540;11.870;2023-03-01T00:41:18;15.45;;;12.38;;
28828;SDS011;15966;51.540;11.870;2023-03-01T00:43:45;17.25;;;13.32;;
28828;SDS011;15966;51.540;11.870;2023-03-01T00:46:12;19.27;;;13.40;;
28828;SDS011;15966;51.540;11.870;2023-03-01T00:48:40;18.92;;;13.05;;
28828;SDS011;15966;51.540;11.870;2023-03-01T00:51:14;16.83;;;12.52;;
28828;SDS011;15966;51.540;11.870;2023-03-01T00:53:45;17.48;;;13.15;;
28828;SDS011;15966;51.540;11.870;2023-03-01T00:56:12;18.58;;;13.10;;
28828;SDS011;15966;51.540;11.870;2023-03-01T00:58:39;20.20;;;11.37;;
28828;SDS011;15966;51.540;11.870;2023-03-01T01:01:13;14.20;;;10.55;;
28828;SDS011;15966;51.540;11.870;2023-03-01T01:03:48;15.63;;;11.23;;
28828;SDS011;15966;51.540;11.870;2023-03-01T01:06:15;13.68;;;11.48;;
28828;SDS011;15966;51.540;11.870;2023-03-01T01:08:42;15.52;;;11.23;;
28828;SDS011;15966;51.540;11.870;2023-03-01T01:11:09;16.02;;;11.30;;
28828;SDS011;15966;51.540;11.870;2023-03-01T01:13:36;16.05;;;11.23;;
28828;SDS011;15966;51.540;11.870;2023-03-01T01:16:03;18.40;;;12.88;;
28828;SDS011;15966;51.540;11.870;2023-03-01T01:18:29;14.07;;;10.40;;
28828;SDS011;15966;51.540;11.870;2023-03-01T01:20:55;18.67;;;12.38;;
28828;SDS011;15966;51.540;11.870;2023-03-01T01:23:21;15.35;;;12.30;;
28828;SDS011;15966;51.540;11.870;2023-03-01T01:25:47;16.60;;;13.15;;
28828;SDS011;15966;51.540;11.870;2023-03-01T01:28:14;16.42;;;12.55;;
28828;SDS011;15966;51.540;11.870;2023-03-01T01:30:40;14.75;;;12.07;;
28828;SDS011;15966;51.540;11.870;2023-03-01T01:33:06;21.67;;;13.48;;
28828;SDS011;15966;51.540;11.870;2023-03-01T01:35:32;20.10;;;13.30;;
28828;SDS011;15966;51.540;11.870;2023-03-01T01:37:58;15.73;;;12.50;;
28828;SDS011;15966;51.540;11.870;2023-03-01T01:40:24;17.45;;;13.32;;
28828;SDS011;15966;51.540;11.870;2023-03-01T01:42:50;20.70;;;13.25;;
28828;SDS011;15966;51.540;11.870;2023-03-01T01:45:24;17.55;;;13.35;;
28828;SDS011;15966;51.540;11.870;2023-03-01T01:48:01;21.35;;;13.30;;
28828;SDS011;15966;51.540;11.870;2023-03-01T01:50:30;14.90;;;12.00;;
28828;SDS011;15966;51.540;11.870;2023-03-01T01:53:03;15.05;;;12.50;;
28828;SDS011;15966;51.540;11.870;2023-03-01T01:55:35;19.55;;;13.70;;
28828;SDS011;15966;51.540;11.870;2023-03-01T01:58:03;18.40;;;12.52;;
28828;SDS011;15966;51.540;11.870;2023-03-01T02:00:30;19.52;;;14.63;;
28828;SDS011;15966;51.540;11.870;2023-03-01T02:03:04;15.85;;;13.55;;
28828;SDS011;15966;51.540;11.870;2023-03-01T02:08:14;23.05;;;14.23;;
28828;SDS011;15966;51.540;11.870;2023-03-01T02:10:43;18.35;;;13.32;;
28828;SDS011;15966;51.540;11.870;2023-03-01T02:13:10;15.52;;;12.85;;
28828;SDS011;15966;51.540;11.870;2023-03-01T02:15:37;18.83;;;13.45;;
28828;SDS011;15966;51.540;11.870;2023-03-01T02:18:05;19.55;;;14.38;;
28828;SDS011;15966;51.540;11.870;2023-03-01T02:20:33;17.58;;;11.80;;
28828;SDS011;15966;51.540;11.870;2023-03-01T02:23:14;14.93;;;11.65;;
28828;SDS011;15966;51.540;11.870;2023-03-01T02:28:32;14.95;;;10.13;;
28828;SDS011;15966;51.540;11.870;2023-03-01T02:31:06;16.80;;;12.18;;
28828;SDS011;15966;51.540;11.870;2023-03-01T02:33:52;18.50;;;11.40;;
28828;SDS011;15966;51.540;11.870;2023-03-01T02:36:20;16.58;;;10.52;;
28828;SDS011;15966;51.540;11.870;2023-03-01T02:38:49;15.80;;;11.40;;
28828;SDS011;15966;51.540;11.870;2023-03-01T02:41:18;20.40;;;12.32;;
28828;SDS011;15966;51.540;11.870;2023-03-01T02:43:45;19.00;;;11.25;;
28828;SDS011;15966;51.540;11.870;2023-03-01T02:46:15;14.68;;;10.23;;
28828;SDS011;15966;51.540;11.870;2023-03-01T02:48:44;17.40;;;11.35;;
28828;SDS011;15966;51.540;11.870;2023-03-01T02:51:22;14.30;;;10.63;;
28828;SDS011;15966;51.540;11.870;2023-03-01T02:54:05;17.77;;;11.98;;
28828;SDS011;15966;51.540;11.870;2023-03-01T02:56:36;14.68;;;11.07;;
28828;SDS011;15966;51.540;11.870;2023-03-01T02:59:02;17.35;;;11.95;;
28828;SDS011;15966;51.540;11.870;2023-03-01T03:01:28;15.68;;;11.38;;
28828;SDS011;15966;51.540;11.870;2023-03-01T03:04:02;18.48;;;11.68;;
28828;SDS011;15966;51.540;11.870;2023-03-01T03:06:29;15.57;;;11.82;;
28828;SDS011;15966;51.540;11.870;2023-03-01T03:08:55;15.05;;;11.40;;
28828;SDS011;15966;51.540;11.870;2023-03-01T03:11:21;16.40;;;11.90;;
28828;SDS011;15966;51.540;11.870;2023-03-01T03:13:48;24.65;;;12.45;;
28828;SDS011;15966;51.540;11.870;2023-03-01T03:16:14;14.80;;;11.80;;
28828;SDS011;15966;51.540;11.870;2023-03-01T03:18:40;16.33;;;12.60;;
28828;SDS011;15966;51.540;11.870;2023-03-01T03:21:07;18.77;;;12.23;;
28828;SDS011;15966;51.540;11.870;2023-03-01T03:23:37;20.08;;;13.65;;
28828;SDS011;15966;51.540;11.870;2023-03-01T03:26:03;16.02;;;11.43;;
28828;SDS011;15966;51.540;11.870;2023-03-01T03:28:30;17.73;;;12.48;;
28828;SDS011;15966;51.540;11.870;2023-03-01T03:30:57;17.23;;;12.03;;
28828;SDS011;15966;51.540;11.870;2023-03-01T03:33:25;14.93;;;10.82;;
28828;SDS011;15966;51.540;11.870;2023-03-01T03:35:51;17.65;;;11.65;;
28828;SDS011;15966;51.540;11.870;2023-03-01T03:38:18;15.77;;;11.27;;
28828;SDS011;15966;51.540;11.870;2023-03-01T03:40:47;14.25;;;10.00;;
28828;SDS011;15966;51.540;11.870;2023-03-01T03:43:22;10.15;;;8.88;;
28828;SDS011;15966;51.540;11.870;2023-03-01T03:45:49;13.30;;;9.90;;
28828;SDS011;15966;51.540;11.870;2023-03-01T03:48:16;18.20;;;11.48;;
28828;SDS011;15966;51.540;11.870;2023-03-01T03:50:46;12.05;;;9.30;;
28828;SDS011;15966;51.540;11.870;2023-03-01T03:53:14;16.20;;;11.30;;
28828;SDS011;15966;51.540;11.870;2023-03-01T03:55:40;13.93;;;10.65;;
28828;SDS011;15966;51.540;11.870;2023-03-01T03:58:07;17.38;;;10.88;;
28828;SDS011;15966;51.540;11.870;2023-03-01T04:00:35;15.15;;;11.15;;
28828;SDS011;15966;51.540;11.870;2023-03-01T04:03:02;18.15;;;11.00;;
28828;SDS011;15966;51.540;11.870;2023-03-01T04:05:29;15.10;;;11.10;;
28828;SDS011;15966;51.540;11.870;2023-03-01T04:07:55;13.95;;;11.38;;
28828;SDS011;15966;51.540;11.870;2023-03-01T04:10:28;18.58;;;12.10;;
28828;SDS011;15966;51.540;11.870;2023-03-01T04:12:56;21.88;;;12.50;;
28828;SDS011;15966;51.540;11.870;2023-03-01T04:15:23;18.42;;;13.15;;
28828;SDS011;15966;51.540;11.870;2023-03-01T04:17:51;19.50;;;14.60;;
28828;SDS011;15966;51.540;11.870;2023-03-01T04:20:19;19.50;;;12.55;;
28828;SDS011;15966;51.540;11.870;2023-03-01T04:22:50;21.90;;;13.35;;
28828;SDS011;15966;51.540;11.870;2023-03-01T04:25:35;18.73;;;13.00;;
28828;SDS011;15966;51.540;11.870;2023-03-01T04:28:05;19.92;;;12.48;;
28828;SDS011;15966;51.540;11.870;2023-03-01T04:30:31;23.05;;;13.40;;
28828;SDS011;15966;51.540;11.870;2023-03-01T04:33:02;17.83;;;12.85;;
28828;SDS011;15966;51.540;11.870;2023-03-01T04:37:55;19.63;;;12.75;;
28828;SDS011;15966;51.540;11.870;2023-03-01T04:40:21;17.90;;;12.93;;
28828;SDS011;15966;51.540;11.870;2023-03-01T04:42:47;19.58;;;12.35;;
28828;SDS011;15966;51.540;11.870;2023-03-01T04:45:13;15.52;;;11.68;;
28828;SDS011;15966;51.540;11.870;2023-03-01T04:47:40;18.67;;;13.02;;
28828;SDS011;15966;51.540;11.870;2023-03-01T04:50:12;22.90;;;12.63;;
28828;SDS011;15966;51.540;11.870;2023-03-01T04:52:43;22.63;;;14.57;;
28828;SDS011;15966;51.540;11.870;2023-03-01T04:55:10;22.17;;;12.73;;
28828;SDS011;15966;51.540;11.870;2023-03-01T04:57:36;16.65;;;12.10;;
28828;SDS011;15966;51.540;11.870;2023-03-01T05:00:03;22.02;;;12.82;;
28828;SDS011;15966;51.540;11.870;2023-03-01T05:02:44;20.50;;;13.20;;
28828;SDS011;15966;51.540;11.870;2023-03-01T05:05:18;23.63;;;13.07;;
28828;SDS011;15966;51.540;11.870;2023-03-01T05:07:45;20.48;;;13.27;;
28828;SDS011;15966;51.540;11.870;2023-03-01T05:10:11;20.52;;;12.82;;
28828;SDS011;15966;51.540;11.870;2023-03-01T05:12:37;23.38;;;13.43;;
28828;SDS011;15966;51.540;11.870;2023-03-01T05:15:03;26.40;;;15.40;;
28828;SDS011;15966;51.540;11.870;2023-03-01T05:17:32;19.67;;;14.07;;
28828;SDS011;15966;51.540;11.870;2023-03-01T05:19:59;23.40;;;14.55;;
28828;SDS011;15966;51.540;11.870;2023-03-01T05:22:25;20.27;;;14.40;;
28828;SDS011;15966;51.540;11.870;2023-03-01T05:24:51;18.95;;;13.23;;
28828;SDS011;15966;51.540;11.870;2023-03-01T05:27:19;20.88;;;12.48;;
28828;SDS011;15966;51.540;11.870;2023-03-01T05:32:13;28.83;;;13.85;;
28828;SDS011;15966;51.540;11.870;2023-03-01T05:34:40;19.15;;;13.10;;
28828;SDS011;15966;51.540;11.870;2023-03-01T05:37:07;18.88;;;13.82;;
28828;SDS011;15966;51.540;11.870;2023-03-01T05:39:33;21.60;;;14.80;;
28828;SDS011;15966;51.540;11.870;2023-03-01T05:42:00;22.67;;;14.52;;
28828;SDS011;15966;51.540;11.870;2023-03-01T05:44:27;24.55;;;15.18;;
28828;SDS011;15966;51.540;11.870;2023-03-01T05:46:53;20.40;;;15.88;;
28828;SDS011;15966;51.540;11.870;2023-03-01T05:49:20;25.70;;;15.88;;
28828;SDS011;15966;51.540;11.870;2023-03-01T05:51:49;25.10;;;17.88;;
28828;SDS011;15966;51.540;11.870;2023-03-01T05:54:17;28.95;;;18.10;;
28828;SDS011;15966;51.540;11.870;2023-03-01T05:56:43;27.08;;;18.58;;
28828;SDS011;15966;51.540;11.870;2023-03-01T05:59:10;32.55;;;19.67;;
28828;SDS011;15966;51.540;11.870;2023-03-01T06:01:36;29.25;;;20.17;;
28828;SDS011;15966;51.540;11.870;2023-03-01T06:04:03;32.13;;;18.75;;
28828;SDS011;15966;51.540;11.870;2023-03-01T06:06:33;32.40;;;18.55;;
28828;SDS011;15966;51.540;11.870;2023-03-01T06:08:59;31.55;;;17.90;;
28828;SDS011;15966;51.540;11.870;2023-03-01T06:11:25;37.10;;;18.48;;
28828;SDS011;15966;51.540;11.870;2023-03-01T06:13:51;28.40;;;17.40;;
28828;SDS011;15966;51.540;11.870;2023-03-01T06:16:18;28.92;;;18.60;;
28828;SDS011;15966;51.540;11.870;2023-03-01T06:18:44;35.13;;;18.58;;
28828;SDS011;15966;51.540;11.870;2023-03-01T06:21:10;29.00;;;19.77;;
28828;SDS011;15966;51.540;11.870;2023-03-01T06:23:36;24.70;;;17.40;;
28828;SDS011;15966;51.540;11.870;2023-03-01T06:26:06;30.98;;;18.35;;
28828;SDS011;15966;51.540;11.870;2023-03-01T06:28:33;33.97;;;20.70;;
28828;SDS011;15966;51.540;11.870;2023-03-01T06:30:59;29.02;;;18.70;;
28828;SDS011;15966;51.540;11.870;2023-03-01T06:33:25;28.55;;;18.05;;
28828;SDS011;15966;51.540;11.870;2023-03-01T06:35:51;23.60;;;16.98;;
28828;SDS011;15966;51.540;11.870;2023-03-01T06:38:20;26.83;;;18.83;;
28828;SDS011;15966;51.540;11.870;2023-03-01T06:40:51;26.38;;;16.88;;
28828;SDS011;15966;51.540;11.870;2023-03-01T06:43:19;28.35;;;18.65;;
28828;SDS011;15966;51.540;11.870;2023-03-01T06:45:45;30.00;;;18.52;;
28828;SDS011;15966;51.540;11.870;2023-03-01T06:48:11;32.28;;;19.30;;
28828;SDS011;15966;51.540;11.870;2023-03-01T06:50:37;33.90;;;20.65;;
28828;SDS011;15966;51.540;11.870;2023-03-01T06:53:03;35.55;;;21.25;;
28828;SDS011;15966;51.540;11.870;2023-03-01T06:55:30;30.85;;;21.92;;
28828;SDS011;15966;51.540;11.870;2023-03-01T06:57:57;37.22;;;25.42;;
28828;SDS011;15966;51.540;11.870;2023-03-01T07:00:24;39.10;;;25.00;;
28828;SDS011;15966;51.540;11.870;2023-03-01T07:02:51;47.63;;;25.90;;
28828;SDS011;15966;51.540;11.870;2023-03-01T07:05:17;37.60;;;23.40;;
28828;SDS011;15966;51.540;11.870;2023-03-01T07:07:43;31.63;;;20.20;;
28828;SDS011;15966;51.540;11.870;2023-03-01T07:10:10;35.75;;;19.88;;
28828;SDS011;15966;51.540;11.870;2023-03-01T07:12:36;35.63;;;19.35;;
28828;SDS011;15966;51.540;11.870;2023-03-01T07:15:03;33.13;;;20.13;;
28828;SDS011;15966;51.540;11.870;2023-03-01T07:17:29;30.10;;;19.38;;
28828;SDS011;15966;51.540;11.870;2023-03-01T07:19:56;33.45;;;19.05;;
28828;SDS011;15966;51.540;11.870;2023-03-01T07:22:22;28.20;;;19.70;;
28828;SDS011;15966;51.540;11.870;2023-03-01T07:24:48;31.95;;;19.17;;
28828;SDS011;15966;51.540;11.870;2023-03-01T07:27:14;24.35;;;19.13;;
28828;SDS011;15966;51.540;11.870;2023-03-01T07:29:40;32.88;;;19.52;;
28828;SDS011;15966;51.540;11.870;2023-03-01T07:32:06;29.83;;;19.48;;
28828;SDS011;15966;51.540;11.870;2023-03-01T07:34:32;28.92;;;17.92;;
28828;SDS011;15966;51.540;11.870;2023-03-01T07:36:58;34.05;;;19.50;;
28828;SDS011;15966;51.540;11.870;2023-03-01T07:39:24;23.65;;;17.88;;
28828;SDS011;15966;51.540;11.870;2023-03-01T07:41:51;31.17;;;18.15;;
28828;SDS011;15966;51.540;11.870;2023-03-01T07:44:17;26.20;;;17.20;;
28828;SDS011;15966;51.540;11.870;2023-03-01T07:46:43;25.15;;;16.92;;
28828;SDS011;15966;51.540;11.870;2023-03-01T07:49:09;25.27;;;17.48;;
28828;SDS011;15966;51.540;11.870;2023-03-01T07:51:36;30.17;;;18.30;;
28828;SDS011;15966;51.540;11.870;2023-03-01T07:54:03;23.77;;;16.92;;
28828;SDS011;15966;51.540;11.870;2023-03-01T07:56:29;23.13;;;16.85;;
28828;SDS011;15966;51.540;11.870;2023-03-01T07:58:55;24.38;;;17.10;;
28828;SDS011;15966;51.540;11.870;2023-03-01T08:01:21;28.73;;;15.95;;
28828;SDS011;15966;51.540;11.870;2023-03-01T08:03:47;22.30;;;16.10;;
28828;SDS011;15966;51.540;11.870;2023-03-01T08:06:14;37.17;;;19.83;;
28828;SDS011;15966;51.540;11.870;2023-03-01T08:08:41;28.67;;;20.08;;
28828;SDS011;15966;51.540;11.870;2023-03-01T08:11:10;27.40;;;18.75;;
28828;SDS011;15966;51.540;11.870;2023-03-01T08:13:36;32.65;;;19.30;;
28828;SDS011;15966;51.540;11.870;2023-03-01T08:16:06;26.60;;;17.95;;
28828;SDS011;15966;51.540;11.870;2023-03-01T08:18:34;27.38;;;17.27;;
28828;SDS011;15966;51.540;11.870;2023-03-01T08:21:04;28.67;;;17.33;;
28828;SDS011;15966;51.540;11.870;2023-03-01T08:23:34;23.40;;;16.80;;
28828;SDS011;15966;51.540;11.870;2023-03-01T08:26:11;27.70;;;16.27;;
28828;SDS011;15966;51.540;11.870;2023-03-01T08:28:39;26.25;;;15.32;;
28828;SDS011;15966;51.540;11.870;2023-03-01T08:33:55;24.77;;;16.33;;
28828;SDS011;15966;51.540;11.870;2023-03-01T08:36:23;21.80;;;14.00;;
28828;SDS011;15966;51.540;11.870;2023-03-01T08:38:50;15.50;;;13.23;;
28828;SDS011;15966;51.540;11.870;2023-03-01T08:41:16;18.58;;;13.45;;
28828;SDS011;15966;51.540;11.870;2023-03-01T08:43:43;19.70;;;15.90;;
28828;SDS011;15966;51.540;11.870;2023-03-01T08:46:09;20.92;;;16.17;;
28828;SDS011;15966;51.540;11.870;2023-03-01T08:48:36;19.98;;;15.45;;
28828;SDS011;15966;51.540;11.870;2023-03-01T08:51:09;23.25;;;16.02;;
28828;SDS011;15966;51.540;11.870;2023-03-01T08:53:37;21.00;;;14.93;;
28828;SDS011;15966;51.540;11.870;2023-03-01T08:56:03;17.30;;;13.70;;
28828;SDS011;15966;51.540;11.870;2023-03-01T08:58:30;20.15;;;13.75;;
28828;SDS011;15966;51.540;11.870;2023-03-01T09:00:56;20.00;;;12.18;;
28828;SDS011;15966;51.540;11.870;2023-03-01T09:03:22;18.83;;;12.15;;
28828;SDS011;15966;51.540;11.870;2023-03-01T09:05:49;17.13;;;13.40;;
28828;SDS011;15966;51.540;11.870;2023-03-01T09:08:16;19.30;;;13.63;;
28828;SDS011;15966;51.540;11.870;2023-03-01T09:10:43;20.20;;;13.90;;
28828;SDS011;15966;51.540;11.870;2023-03-01T09:13:09;17.75;;;12.65;;
28828;SDS011;15966;51.540;11.870;2023-03-01T09:15:38;17.98;;;14.02;;
28828;SDS011;15966;51.540;11.870;2023-03-01T09:18:04;17.40;;;13.15;;
28828;SDS011;15966;51.540;11.870;2023-03-01T09:20:31;17.63;;;12.90;;
28828;SDS011;15966;51.540;11.870;2023-03-01T09:22:57;20.60;;;13.80;;
28828;SDS011;15966;51.540;11.870;2023-03-01T09:25:24;14.07;;;11.43;;
28828;SDS011;15966;51.540;11.870;2023-03-01T09:27:51;17.17;;;11.27;;
28828;SDS011;15966;51.540;11.870;2023-03-01T09:30:17;17.23;;;11.38;;
28828;SDS011;15966;51.540;11.870;2023-03-01T09:32:43;18.15;;;13.00;;
28828;SDS011;15966;51.540;11.870;2023-03-01T09:35:10;14.48;;;10.65;;
28828;SDS011;15966;51.540;11.870;2023-03-01T09:37:36;15.38;;;11.48;;
28828;SDS011;15966;51.540;11.870;2023-03-01T09:40:04;23.92;;;11.27;;
28828;SDS011;15966;51.540;11.870;2023-03-01T09:44:59;18.63;;;12.27;;
28828;SDS011;15966;51.540;11.870;2023-03-01T09:47:31;13.68;;;9.73;;
28828;SDS011;15966;51.540;11.870;2023-03-01T09:52:43;16.48;;;10.80;;
28828;SDS011;15966;51.540;11.870;2023-03-01T09:55:15;18.85;;;13.02;;
28828;SDS011;15966;51.540;11.870;2023-03-01T09:57:55;14.65;;;9.88;;
28828;SDS011;15966;51.540;11.870;2023-03-01T10:00:39;14.35;;;9.43;;
28828;SDS011;15966;51.540;11.870;2023-03-01T10:03:16;15.88;;;10.93;;
28828;SDS011;15966;51.540;11.870;2023-03-01T10:05:50;14.15;;;10.05;;
28828;SDS011;15966;51.540;11.870;2023-03-01T10:11:04;18.17;;;10.00;;
28828;SDS011;15966;51.540;11.870;2023-03-01T10:13:46;18.33;;;10.13;;
28828;SDS011;15966;51.540;11.870;2023-03-01T10:19:20;15.95;;;10.18;;
28828;SDS011;15966;51.540;11.870;2023-03-01T10:21:50;17.45;;;9.30;;
28828;SDS011;15966;51.540;11.870;2023-03-01T10:24:17;13.80;;;10.82;;
28828;SDS011;15966;51.540;11.870;2023-03-01T10:29:24;15.88;;;11.07;;
28828;SDS011;15966;51.540;11.870;2023-03-01T10:31:55;19.08;;;9.73;;
28828;SDS011;15966;51.540;11.870;2023-03-01T10:34:29;14.98;;;10.27;;
28828;SDS011;15966;51.540;11.870;2023-03-01T10:36:57;16.10;;;11.38;;
28828;SDS011;15966;51.540;11.870;2023-03-01T10:39:36;12.45;;;10.02;;
28828;SDS011;15966;51.540;11.870;2023-03-01T10:44:39;14.90;;;9.88;;
28828;SDS011;15966;51.540;11.870;2023-03-01T10:47:22;15.25;;;11.75;;
28828;SDS011;15966;51.540;11.870;2023-03-01T10:49:54;17.25;;;12.18;;
28828;SDS011;15966;51.540;11.870;2023-03-01T10:52:25;15.15;;;11.32;;
28828;SDS011;15966;51.540;11.870;2023-03-01T10:54:54;17.13;;;11.68;;
28828;SDS011;15966;51.540;11.870;2023-03-01T10:57:32;17.40;;;10.43;;
28828;SDS011;15966;51.540;11.870;2023-03-01T11:00:16;18.40;;;11.48;;
28828;SDS011;15966;51.540;11.870;2023-03-01T11:02:47;17.35;;;11.40;;
28828;SDS011;15966;51.540;11.870;2023-03-01T11:07:49;14.55;;;10.30;;
28828;SDS011;15966;51.540;11.870;2023-03-01T11:10:19;17.42;;;10.57;;
28828;SDS011;15966;51.540;11.870;2023-03-01T11:12:50;12.50;;;8.73;;
28828;SDS011;15966;51.540;11.870;2023-03-01T11:15:24;17.88;;;11.63;;
28828;SDS011;15966;51.540;11.870;2023-03-01T11:17:52;13.18;;;10.18;;
28828;SDS011;15966;51.540;11.870;2023-03-01T11:20:31;14.70;;;9.65;;
28828;SDS011;15966;51.540;11.870;2023-03-01T11:25:29;10.57;;;8.55;;
28828;SDS011;15966;51.540;11.870;2023-03-01T11:28:00;12.45;;;9.13;;
28828;SDS011;15966;51.540;11.870;2023-03-01T11:30:29;12.80;;;9.98;;
28828;SDS011;15966;51.540;11.870;2023-03-01T11:33:03;15.02;;;9.43;;
28828;SDS011;15966;51.540;11.870;2023-03-01T11:35:59;12.85;;;9.55;;
28828;SDS011;15966;51.540;11.870;2023-03-01T11:38:45;10.05;;;8.90;;
28828;SDS011;15966;51.540;11.870;2023-03-01T11:51:48;16.75;;;8.68;;
28828;SDS011;15966;51.540;11.870;2023-03-01T12:00:21;11.65;;;9.10;;
28828;SDS011;15966;51.540;11.870;2023-03-01T12:08:33;11.25;;;8.25;;
28828;SDS011;15966;51.540;11.870;2023-03-01T12:11:20;10.13;;;8.60;;
28828;SDS011;15966;51.540;11.870;2023-03-01T12:16:21;15.65;;;8.40;;
28828;SDS011;15966;51.540;11.870;2023-03-01T12:21:59;9.77;;;7.13;;
28828;SDS011;15966;51.540;11.870;2023-03-01T12:33:12;9.88;;;7.90;;
28828;SDS011;15966;51.540;11.870;2023-03-01T12:36:09;11.65;;;7.50;;
28828;SDS011;15966;51.540;11.870;2023-03-01T12:42:01;8.80;;;5.75;;
28828;SDS011;15966;51.540;11.870;2023-03-01T12:44:47;10.02;;;7.28;;
28828;SDS011;15966;51.540;11.870;2023-03-01T12:47:26;11.95;;;7.45;;
28828;SDS011;15966;51.540;11.870;2023-03-01T12:50:00;8.13;;;6.68;;
28828;SDS011;15966;51.540;11.870;2023-03-01T12:52:39;9.25;;;6.85;;
28828;SDS011;15966;51.540;11.870;2023-03-01T12:55:26;10.45;;;6.43;;
28828;SDS011;15966;51.540;11.870;2023-03-01T12:58:12;9.00;;;6.57;;
28828;SDS011;15966;51.540;11.870;2023-03-01T13:11:41;7.10;;;5.55;;
28828;SDS011;15966;51.540;11.870;2023-03-01T13:16:47;7.32;;;5.97;;
28828;SDS011;15966;51.540;11.870;2023-03-01T13:21:45;7.13;;;5.40;;
28828;SDS011;15966;51.540;11.870;2023-03-01T13:24:45;6.93;;;5.90;;
28828;SDS011;15966;51.540;11.870;2023-03-01T13:29:46;7.47;;;6.45;;
28828;SDS011;15966;51.540;11.870;2023-03-01T13:32:32;12.13;;;6.75;;
28828;SDS011;15966;51.540;11.870;2023-03-01T13:35:40;6.03;;;4.72;;
28828;SDS011;15966;51.540;11.870;2023-03-01T13:37:52;7.88;;;5.35;;
28828;SDS011;15966;51.540;11.870;2023-03-01T13:42:45;7.25;;;5.30;;
28828;SDS011;15966;51.540;11.870;2023-03-01T13:45:14;7.75;;;5.75;;
28828;SDS011;15966;51.540;11.870;2023-03-01T13:47:45;6.85;;;4.63;;
28828;SDS011;15966;51.540;11.870;2023-03-01T13:50:24;6.30;;;4.75;;
28828;SDS011;15966;51.540;11.870;2023-03-01T13:53:03;9.43;;;5.78;;
28828;SDS011;15966;51.540;11.870;2023-03-01T13:55:36;7.63;;;5.35;;
28828;SDS011;15966;51.540;11.870;2023-03-01T13:58:26;7.93;;;5.85;;
28828;SDS011;15966;51.540;11.870;2023-03-01T14:01:03;7.78;;;6.50;;
28828;SDS011;15966;51.540;11.870;2023-03-01T14:03:32;10.63;;;6.03;;
28828;SDS011;15966;51.540;11.870;2023-03-01T14:08:29;8.23;;;5.35;;
28828;SDS011;15966;51.540;11.870;2023-03-01T14:11:02;6.43;;;5.45;;
28828;SDS011;15966;51.540;11.870;2023-03-01T14:13:38;6.93;;;4.63;;
28828;SDS011;15966;51.540;11.870;2023-03-01T14:19:01;8.30;;;4.63;;
28828;SDS011;15966;51.540;11.870;2023-03-01T14:21:35;7.32;;;4.60;;
28828;SDS011;15966;51.540;11.870;2023-03-01T14:24:01;6.95;;;4.68;;
28828;SDS011;15966;51.540;11.870;2023-03-01T14:26:28;6.60;;;4.85;;
28828;SDS011;15966;51.540;11.870;2023-03-01T14:28:55;5.20;;;4.70;;
28828;SDS011;15966;51.540;11.870;2023-03-01T14:31:36;8.20;;;5.30;;
28828;SDS011;15966;51.540;11.870;2023-03-01T14:34:03;6.38;;;4.95;;
28828;SDS011;15966;51.540;11.870;2023-03-01T14:36:31;8.93;;;5.57;;
28828;SDS011;15966;51.540;11.870;2023-03-01T14:38:58;6.25;;;5.38;;
28828;SDS011;15966;51.540;11.870;2023-03-01T14:41:30;5.18;;;4.15;;
28828;SDS011;15966;51.540;11.870;2023-03-01T14:44:00;7.60;;;5.00;;
28828;SDS011;15966;51.540;11.870;2023-03-01T14:46:35;5.93;;;4.85;;
28828;SDS011;15966;51.540;11.870;2023-03-01T14:51:30;8.63;;;5.28;;
28828;SDS011;15966;51.540;11.870;2023-03-01T14:54:00;6.70;;;4.25;;
28828;SDS011;15966;51.540;11.870;2023-03-01T14:56:26;8.18;;;4.50;;
28828;SDS011;15966;51.540;11.870;2023-03-01T14:58:53;5.63;;;4.65;;
28828;SDS011;15966;51.540;11.870;2023-03-01T15:01:19;7.70;;;5.13;;
28828;SDS011;15966;51.540;11.870;2023-03-01T15:03:46;6.07;;;4.75;;
28828;SDS011;15966;51.540;11.870;2023-03-01T15:06:17;10.00;;;4.43;;
28828;SDS011;15966;51.540;11.870;2023-03-01T15:08:48;6.50;;;4.53;;
28828;SDS011;15966;51.540;11.870;2023-03-01T15:11:23;7.20;;;5.28;;
28828;SDS011;15966;51.540;11.870;2023-03-01T15:13:50;8.27;;;5.05;;
28828;SDS011;15966;51.540;11.870;2023-03-01T15:16:17;6.93;;;4.68;;
28828;SDS011;15966;51.540;11.870;2023-03-01T15:18:49;6.78;;;4.32;;
28828;SDS011;15966;51.540;11.870;2023-03-01T15:23:53;7.68;;;5.07;;
28828;SDS011;15966;51.540;11.870;2023-03-01T15:29:10;7.30;;;5.07;;
28828;SDS011;15966;51.540;11.870;2023-03-01T15:31:52;8.20;;;5.93;;
28828;SDS011;15966;51.540;11.870;2023-03-01T15:34:24;6.13;;;5.00;;
28828;SDS011;15966;51.540;11.870;2023-03-01T15:36:53;7.85;;;5.43;;
28828;SDS011;15966;51.540;11.870;2023-03-01T15:42:02;9.43;;;5.15;;
28828;SDS011;15966;51.540;11.870;2023-03-01T15:44:33;6.53;;;5.25;;
28828;SDS011;15966;51.540;11.870;2023-03-01T15:47:00;6.93;;;5.45;;
28828;SDS011;15966;51.540;11.870;2023-03-01T15:52:13;6.85;;;4.97;;
28828;SDS011;15966;51.540;11.870;2023-03-01T15:54:45;7.47;;;5.88;;
28828;SDS011;15966;51.540;11.870;2023-03-01T15:57:14;7.85;;;5.63;;
28828;SDS011;15966;51.540;11.870;2023-03-01T15:59:41;10.27;;;5.47;;
28828;SDS011;15966;51.540;11.870;2023-03-01T16:02:09;7.28;;;5.47;;
28828;SDS011;15966;51.540;11.870;2023-03-01T16:04:37;5.05;;;4.53;;
28828;SDS011;15966;51.540;11.870;2023-03-01T16:07:03;7.47;;;6.20;;
28828;SDS011;15966;51.540;11.870;2023-03-01T16:09:30;9.45;;;5.45;;
28828;SDS011;15966;51.540;11.870;2023-03-01T16:11:56;9.13;;;5.40;;
28828;SDS011;15966;51.540;11.870;2023-03-01T16:14:22;6.00;;;4.88;;
28828;SDS011;15966;51.540;11.870;2023-03-01T16:16:48;6.28;;;5.22;;
28828;SDS011;15966;51.540;11.870;2023-03-01T16:19:14;10.25;;;5.70;;
28828;SDS011;15966;51.540;11.870;2023-03-01T16:21:41;6.53;;;5.20;;
28828;SDS011;15966;51.540;11.870;2023-03-01T16:24:11;12.65;;;5.88;;